sensor_id;sensor_type;location;lat;lon;timestamp;P1;durP1;ratioP1;P2;durP2;ratioP2
11791;SDS011;5953;52.372;9.918;2023-12-07T00:02:03;22.87;;;18.03;;
11791;SDS011;5953;52.372;9.918;2023-12-07T00:04:33;20.63;;;17.17;;
11791;SDS011;5953;52.372;9.918;2023-12-07T00:07:01;21.20;;;16.23;;
11791;SDS011;5953;52.372;9.918;2023-12-07T00:09:29;21.73;;;17.00;;
11791;SDS011;5953;52.372;9.918;2023-12-07T00:11:56;22.07;;;17.17;;
11791;SDS011;5953;52.372;9.918;2023-12-07T00:14:24;25.83;;;17.23;;
11791;SDS011;5953;52.372;9.918;2023-12-07T00:16:52;22.57;;;16.47;;
11791;SDS011;5953;52.372;9.918;2023-12-07T00:19:20;20.80;;;16.93;;
11791;SDS011;5953;52.372;9.918;2023-12-07T00:21:49;20.20;;;15.57;;
11791;SDS011;5953;52.372;9.918;2023-12-07T00:24:17;23.90;;;16.37;;
11791;SDS011;5953;52.372;9.918;2023-12-07T00:26:45;20.77;;;16.17;;
11791;SDS011;5953;52.372;9.918;2023-12-07T00:29:13;20.83;;;16.77;;
11791;SDS011;5953;52.372;9.918;2023-12-07T00:31:41;22.00;;;16.30;;
11791;SDS011;5953;52.372;9.918;2023-12-07T00:34:10;22.13;;;16.80;;
11791;SDS011;5953;52.372;9.918;2023-12-07T00:36:38;24.53;;;16.33;;
11791;SDS011;5953;52.372;9.918;2023-12-07T00:39:08;21.33;;;16.40;;
11791;SDS011;5953;52.372;9.918;2023-12-07T00:41:36;22.27;;;16.20;;
11791;SDS011;5953;52.372;9.918;2023-12-07T00:44:04;18.70;;;15.27;;
11791;SDS011;5953;52.372;9.918;2023-12-07T00:46:32;20.37;;;16.07;;
11791;SDS011;5953;52.372;9.918;2023-12-07T00:49:00;21.40;;;17.13;;
11791;SDS011;5953;52.372;9.918;2023-12-07T00:51:28;21.93;;;16.07;;
11791;SDS011;5953;52.372;9.918;2023-12-07T00:53:56;21.63;;;16.47;;
11791;SDS011;5953;52.372;9.918;2023-12-07T00:56:26;20.77;;;16.00;;
11791;SDS011;5953;52.372;9.918;2023-12-07T00:58:53;22.53;;;18.73;;
11791;SDS011;5953;52.372;9.918;2023-12-07T01:01:21;21.63;;;16.37;;
11791;SDS011;5953;52.372;9.918;2023-12-07T01:03:49;21.23;;;16.90;;
11791;SDS011;5953;52.372;9.918;2023-12-07T01:06:17;23.47;;;17.63;;
11791;SDS011;5953;52.372;9.918;2023-12-07T01:08:45;22.90;;;16.40;;
11791;SDS011;5953;52.372;9.918;2023-12-07T01:11:13;23.07;;;17.20;;
11791;SDS011;5953;52.372;9.918;2023-12-07T01:13:42;21.93;;;17.00;;
11791;SDS011;5953;52.372;9.918;2023-12-07T01:16:10;23.03;;;19.07;;
11791;SDS011;5953;52.372;9.918;2023-12-07T01:18:38;23.63;;;17.03;;
11791;SDS011;5953;52.372;9.918;2023-12-07T01:21:06;29.57;;;19.37;;
11791;SDS011;5953;52.372;9.918;2023-12-07T01:23:34;21.13;;;16.63;;
11791;SDS011;5953;52.372;9.918;2023-12-07T01:26:05;24.63;;;17.73;;
11791;SDS011;5953;52.372;9.918;2023-12-07T01:28:33;20.80;;;16.63;;
11791;SDS011;5953;52.372;9.918;2023-12-07T01:31:03;22.40;;;17.17;;
11791;SDS011;5953;52.372;9.918;2023-12-07T01:33:31;24.30;;;18.23;;
11791;SDS011;5953;52.372;9.918;2023-12-07T01:35:58;23.20;;;17.00;;
11791;SDS011;5953;52.372;9.918;2023-12-07T01:38:27;23.00;;;17.63;;
11791;SDS011;5953;52.372;9.918;2023-12-07T01:40:54;24.17;;;17.33;;
11791;SDS011;5953;52.372;9.918;2023-12-07T01:43:22;24.83;;;18.43;;
11791;SDS011;5953;52.372;9.918;2023-12-07T01:45:51;24.20;;;18.33;;
11791;SDS011;5953;52.372;9.918;2023-12-07T01:48:22;24.83;;;18.00;;
11791;SDS011;5953;52.372;9.918;2023-12-07T01:50:53;22.77;;;17.60;;
11791;SDS011;5953;52.372;9.918;2023-12-07T01:53:22;23.57;;;17.70;;
11791;SDS011;5953;52.372;9.918;2023-12-07T01:55:51;27.17;;;18.03;;
11791;SDS011;5953;52.372;9.918;2023-12-07T01:58:20;24.50;;;16.90;;
11791;SDS011;5953;52.372;9.918;2023-12-07T02:00:48;22.83;;;17.57;;
11791;SDS011;5953;52.372;9.918;2023-12-07T02:03:17;23.33;;;17.50;;
11791;SDS011;5953;52.372;9.918;2023-12-07T02:05:47;23.13;;;16.67;;
11791;SDS011;5953;52.372;9.918;2023-12-07T02:08:16;26.23;;;17.97;;
11791;SDS011;5953;52.372;9.918;2023-12-07T02:10:43;22.63;;;18.00;;
11791;SDS011;5953;52.372;9.918;2023-12-07T02:13:12;21.27;;;16.67;;
11791;SDS011;5953;52.372;9.918;2023-12-07T02:15:40;22.50;;;17.53;;
11791;SDS011;5953;52.372;9.918;2023-12-07T02:18:10;20.57;;;16.07;;
11791;SDS011;5953;52.372;9.918;2023-12-07T02:20:43;23.97;;;17.37;;
11791;SDS011;5953;52.372;9.918;2023-12-07T02:23:15;23.43;;;16.20;;
11791;SDS011;5953;52.372;9.918;2023-12-07T02:26:05;24.90;;;18.27;;
11791;SDS011;5953;52.372;9.918;2023-12-07T02:28:37;21.07;;;16.40;;
11791;SDS011;5953;52.372;9.918;2023-12-07T02:31:05;21.73;;;16.43;;
11791;SDS011;5953;52.372;9.918;2023-12-07T02:33:33;21.23;;;16.10;;
11791;SDS011;5953;52.372;9.918;2023-12-07T02:36:02;20.90;;;16.33;;
11791;SDS011;5953;52.372;9.918;2023-12-07T02:38:30;22.43;;;17.50;;
11791;SDS011;5953;52.372;9.918;2023-12-07T02:40:58;21.90;;;16.40;;
11791;SDS011;5953;52.372;9.918;2023-12-07T02:43:26;21.70;;;16.30;;
11791;SDS011;5953;52.372;9.918;2023-12-07T02:45:56;19.80;;;16.27;;
11791;SDS011;5953;52.372;9.918;2023-12-07T02:48:24;20.87;;;15.27;;
11791;SDS011;5953;52.372;9.918;2023-12-07T02:50:53;22.00;;;16.53;;
11791;SDS011;5953;52.372;9.918;2023-12-07T02:53:21;20.47;;;15.50;;
11791;SDS011;5953;52.372;9.918;2023-12-07T02:55:49;24.43;;;15.67;;
11791;SDS011;5953;52.372;9.918;2023-12-07T02:58:16;20.10;;;16.47;;
11791;SDS011;5953;52.372;9.918;2023-12-07T03:00:44;20.97;;;16.67;;
11791;SDS011;5953;52.372;9.918;2023-12-07T03:03:13;22.07;;;16.43;;
11791;SDS011;5953;52.372;9.918;2023-12-07T03:05:41;20.90;;;14.93;;
11791;SDS011;5953;52.372;9.918;2023-12-07T03:08:09;20.07;;;16.60;;
11791;SDS011;5953;52.372;9.918;2023-12-07T03:10:37;22.20;;;16.50;;
11791;SDS011;5953;52.372;9.918;2023-12-07T03:13:05;21.07;;;16.37;;
11791;SDS011;5953;52.372;9.918;2023-12-07T03:15:32;21.70;;;16.00;;
11791;SDS011;5953;52.372;9.918;2023-12-07T03:18:00;20.47;;;15.67;;
11791;SDS011;5953;52.372;9.918;2023-12-07T03:20:30;18.63;;;15.20;;
11791;SDS011;5953;52.372;9.918;2023-12-07T03:22:58;18.97;;;13.60;;
11791;SDS011;5953;52.372;9.918;2023-12-07T03:25:26;18.30;;;14.53;;
11791;SDS011;5953;52.372;9.918;2023-12-07T03:27:53;20.53;;;15.50;;
11791;SDS011;5953;52.372;9.918;2023-12-07T03:30:21;24.47;;;16.50;;
11791;SDS011;5953;52.372;9.918;2023-12-07T03:32:49;20.93;;;14.67;;
11791;SDS011;5953;52.372;9.918;2023-12-07T03:35:17;20.40;;;15.83;;
11791;SDS011;5953;52.372;9.918;2023-12-07T03:37:46;18.90;;;15.10;;
11791;SDS011;5953;52.372;9.918;2023-12-07T03:40:14;18.67;;;14.77;;
11791;SDS011;5953;52.372;9.918;2023-12-07T03:42:42;21.00;;;15.53;;
11791;SDS011;5953;52.372;9.918;2023-12-07T03:45:21;18.00;;;14.67;;
11791;SDS011;5953;52.372;9.918;2023-12-07T03:47:49;19.03;;;14.33;;
11791;SDS011;5953;52.372;9.918;2023-12-07T03:50:17;20.47;;;15.80;;
11791;SDS011;5953;52.372;9.918;2023-12-07T03:52:46;19.93;;;15.93;;
11791;SDS011;5953;52.372;9.918;2023-12-07T03:55:15;22.83;;;15.03;;
11791;SDS011;5953;52.372;9.918;2023-12-07T03:57:43;18.97;;;15.60;;
11791;SDS011;5953;52.372;9.918;2023-12-07T04:00:11;19.27;;;15.73;;
11791;SDS011;5953;52.372;9.918;2023-12-07T04:02:39;22.10;;;15.87;;
11791;SDS011;5953;52.372;9.918;2023-12-07T04:05:07;18.67;;;14.43;;
11791;SDS011;5953;52.372;9.918;2023-12-07T04:07:35;20.03;;;15.60;;
11791;SDS011;5953;52.372;9.918;2023-12-07T04:10:05;20.33;;;14.93;;
11791;SDS011;5953;52.372;9.918;2023-12-07T04:12:34;17.50;;;14.70;;
11791;SDS011;5953;52.372;9.918;2023-12-07T04:15:01;19.90;;;15.57;;
11791;SDS011;5953;52.372;9.918;2023-12-07T04:17:29;19.87;;;14.73;;
11791;SDS011;5953;52.372;9.918;2023-12-07T04:19:57;19.10;;;14.63;;
11791;SDS011;5953;52.372;9.918;2023-12-07T04:22:25;19.40;;;14.67;;
11791;SDS011;5953;52.372;9.918;2023-12-07T04:24:53;20.33;;;14.90;;
11791;SDS011;5953;52.372;9.918;2023-12-07T04:27:22;21.67;;;14.27;;
11791;SDS011;5953;52.372;9.918;2023-12-07T04:29:50;20.67;;;15.03;;
11791;SDS011;5953;52.372;9.918;2023-12-07T04:32:18;16.83;;;13.90;;
11791;SDS011;5953;52.372;9.918;2023-12-07T04:34:46;19.87;;;14.80;;
11791;SDS011;5953;52.372;9.918;2023-12-07T04:37:14;17.50;;;14.37;;
11791;SDS011;5953;52.372;9.918;2023-12-07T04:39:41;19.87;;;14.33;;
11791;SDS011;5953;52.372;9.918;2023-12-07T04:42:09;17.20;;;14.70;;
11791;SDS011;5953;52.372;9.918;2023-12-07T04:44:38;21.30;;;14.80;;
11791;SDS011;5953;52.372;9.918;2023-12-07T04:47:06;18.67;;;14.57;;
11791;SDS011;5953;52.372;9.918;2023-12-07T04:49:34;19.60;;;13.97;;
11791;SDS011;5953;52.372;9.918;2023-12-07T04:52:02;20.93;;;15.70;;
11791;SDS011;5953;52.372;9.918;2023-12-07T04:54:31;18.77;;;14.73;;
11791;SDS011;5953;52.372;9.918;2023-12-07T04:56:58;18.97;;;14.17;;
11791;SDS011;5953;52.372;9.918;2023-12-07T04:59:26;17.90;;;13.97;;
11791;SDS011;5953;52.372;9.918;2023-12-07T05:01:55;19.47;;;14.10;;
11791;SDS011;5953;52.372;9.918;2023-12-07T05:04:23;18.57;;;14.27;;
11791;SDS011;5953;52.372;9.918;2023-12-07T05:06:51;16.50;;;14.07;;
11791;SDS011;5953;52.372;9.918;2023-12-07T05:09:19;18.87;;;14.23;;
11791;SDS011;5953;52.372;9.918;2023-12-07T05:11:47;18.30;;;13.80;;
11791;SDS011;5953;52.372;9.918;2023-12-07T05:14:15;19.60;;;14.27;;
11791;SDS011;5953;52.372;9.918;2023-12-07T05:16:43;17.10;;;13.20;;
11791;SDS011;5953;52.372;9.918;2023-12-07T05:19:13;16.53;;;12.70;;
11791;SDS011;5953;52.372;9.918;2023-12-07T05:21:41;16.83;;;13.50;;
11791;SDS011;5953;52.372;9.918;2023-12-07T05:24:09;20.63;;;14.73;;
11791;SDS011;5953;52.372;9.918;2023-12-07T05:26:36;15.87;;;12.77;;
11791;SDS011;5953;52.372;9.918;2023-12-07T05:29:04;17.57;;;13.23;;
11791;SDS011;5953;52.372;9.918;2023-12-07T05:31:32;17.53;;;13.17;;
11791;SDS011;5953;52.372;9.918;2023-12-07T05:34:00;17.70;;;13.93;;
11791;SDS011;5953;52.372;9.918;2023-12-07T05:36:30;21.83;;;14.57;;
11791;SDS011;5953;52.372;9.918;2023-12-07T05:38:57;16.20;;;12.43;;
11791;SDS011;5953;52.372;9.918;2023-12-07T05:41:25;17.27;;;13.30;;
11791;SDS011;5953;52.372;9.918;2023-12-07T05:43:53;17.57;;;11.70;;
11791;SDS011;5953;52.372;9.918;2023-12-07T05:46:21;18.83;;;13.50;;
11791;SDS011;5953;52.372;9.918;2023-12-07T05:48:49;16.10;;;13.43;;
11791;SDS011;5953;52.372;9.918;2023-12-07T05:51:19;18.47;;;12.60;;
11791;SDS011;5953;52.372;9.918;2023-12-07T05:53:48;17.40;;;12.53;;
11791;SDS011;5953;52.372;9.918;2023-12-07T05:56:17;17.10;;;13.07;;
11791;SDS011;5953;52.372;9.918;2023-12-07T05:58:46;18.13;;;13.33;;
11791;SDS011;5953;52.372;9.918;2023-12-07T06:01:16;18.63;;;13.17;;
11791;SDS011;5953;52.372;9.918;2023-12-07T06:03:45;17.77;;;12.90;;
11791;SDS011;5953;52.372;9.918;2023-12-07T06:06:13;16.80;;;13.23;;
11791;SDS011;5953;52.372;9.918;2023-12-07T06:08:40;16.37;;;12.73;;
11791;SDS011;5953;52.372;9.918;2023-12-07T06:11:10;18.67;;;13.10;;
11791;SDS011;5953;52.372;9.918;2023-12-07T06:13:38;15.47;;;12.27;;
11791;SDS011;5953;52.372;9.918;2023-12-07T06:16:06;13.87;;;11.47;;
11791;SDS011;5953;52.372;9.918;2023-12-07T06:18:34;19.17;;;13.07;;
11791;SDS011;5953;52.372;9.918;2023-12-07T06:21:04;18.00;;;12.83;;
11791;SDS011;5953;52.372;9.918;2023-12-07T06:23:32;18.33;;;13.37;;
11791;SDS011;5953;52.372;9.918;2023-12-07T06:26:01;16.73;;;12.37;;
11791;SDS011;5953;52.372;9.918;2023-12-07T06:28:33;16.10;;;12.20;;
11791;SDS011;5953;52.372;9.918;2023-12-07T06:31:04;16.17;;;12.73;;
11791;SDS011;5953;52.372;9.918;2023-12-07T06:33:33;15.00;;;12.10;;
11791;SDS011;5953;52.372;9.918;2023-12-07T06:36:02;17.73;;;12.47;;
11791;SDS011;5953;52.372;9.918;2023-12-07T06:38:30;18.40;;;12.50;;
11791;SDS011;5953;52.372;9.918;2023-12-07T06:40:58;15.80;;;12.23;;
11791;SDS011;5953;52.372;9.918;2023-12-07T06:43:26;17.90;;;12.67;;
11791;SDS011;5953;52.372;9.918;2023-12-07T06:45:55;15.50;;;12.27;;
11791;SDS011;5953;52.372;9.918;2023-12-07T06:48:23;16.93;;;13.07;;
11791;SDS011;5953;52.372;9.918;2023-12-07T06:50:51;16.13;;;12.93;;
11791;SDS011;5953;52.372;9.918;2023-12-07T06:53:18;17.60;;;14.17;;
11791;SDS011;5953;52.372;9.918;2023-12-07T06:55:46;17.40;;;12.57;;
11791;SDS011;5953;52.372;9.918;2023-12-07T06:58:14;20.53;;;13.97;;
11791;SDS011;5953;52.372;9.918;2023-12-07T07:00:42;15.67;;;12.10;;
11791;SDS011;5953;52.372;9.918;2023-12-07T07:03:11;17.93;;;13.90;;
11791;SDS011;5953;52.372;9.918;2023-12-07T07:05:39;18.80;;;12.53;;
11791;SDS011;5953;52.372;9.918;2023-12-07T07:08:07;22.77;;;12.30;;
11791;SDS011;5953;52.372;9.918;2023-12-07T07:10:35;17.40;;;13.50;;
11791;SDS011;5953;52.372;9.918;2023-12-07T07:13:03;16.83;;;12.40;;
11791;SDS011;5953;52.372;9.918;2023-12-07T07:15:31;17.40;;;12.73;;
11791;SDS011;5953;52.372;9.918;2023-12-07T07:18:00;18.47;;;13.70;;
11791;SDS011;5953;52.372;9.918;2023-12-07T07:20:29;16.87;;;12.93;;
11791;SDS011;5953;52.372;9.918;2023-12-07T07:22:58;19.80;;;13.00;;
11791;SDS011;5953;52.372;9.918;2023-12-07T07:25:25;18.93;;;13.93;;
11791;SDS011;5953;52.372;9.918;2023-12-07T07:27:53;16.27;;;13.40;;
11791;SDS011;5953;52.372;9.918;2023-12-07T07:30:21;17.03;;;13.37;;
11791;SDS011;5953;52.372;9.918;2023-12-07T07:32:49;16.33;;;13.30;;
11791;SDS011;5953;52.372;9.918;2023-12-07T07:35:17;17.97;;;12.87;;
11791;SDS011;5953;52.372;9.918;2023-12-07T07:37:46;18.83;;;13.80;;
11791;SDS011;5953;52.372;9.918;2023-12-07T07:40:14;20.77;;;14.73;;
11791;SDS011;5953;52.372;9.918;2023-12-07T07:42:42;17.87;;;13.20;;
11791;SDS011;5953;52.372;9.918;2023-12-07T07:45:10;19.07;;;13.83;;
11791;SDS011;5953;52.372;9.918;2023-12-07T07:47:38;18.10;;;12.77;;
11791;SDS011;5953;52.372;9.918;2023-12-07T07:50:06;18.53;;;12.40;;
11791;SDS011;5953;52.372;9.918;2023-12-07T07:52:34;20.17;;;13.27;;
11791;SDS011;5953;52.372;9.918;2023-12-07T07:55:04;18.00;;;13.33;;
11791;SDS011;5953;52.372;9.918;2023-12-07T07:57:33;20.70;;;13.80;;
11791;SDS011;5953;52.372;9.918;2023-12-07T08:00:01;18.90;;;14.07;;
11791;SDS011;5953;52.372;9.918;2023-12-07T08:02:31;19.10;;;13.53;;
11791;SDS011;5953;52.372;9.918;2023-12-07T08:04:59;19.33;;;13.93;;
11791;SDS011;5953;52.372;9.918;2023-12-07T08:07:27;17.57;;;13.47;;
11791;SDS011;5953;52.372;9.918;2023-12-07T08:09:55;19.70;;;14.47;;
11791;SDS011;5953;52.372;9.918;2023-12-07T08:12:24;20.50;;;14.70;;
11791;SDS011;5953;52.372;9.918;2023-12-07T08:14:52;20.83;;;15.13;;
11791;SDS011;5953;52.372;9.918;2023-12-07T08:17:20;22.53;;;14.30;;
11791;SDS011;5953;52.372;9.918;2023-12-07T08:19:48;21.93;;;15.60;;
11791;SDS011;5953;52.372;9.918;2023-12-07T08:22:16;23.40;;;16.17;;
11791;SDS011;5953;52.372;9.918;2023-12-07T08:24:44;22.67;;;16.20;;
11791;SDS011;5953;52.372;9.918;2023-12-07T08:27:20;24.17;;;16.03;;
11791;SDS011;5953;52.372;9.918;2023-12-07T08:29:50;27.57;;;16.90;;
11791;SDS011;5953;52.372;9.918;2023-12-07T08:32:17;23.23;;;16.13;;
11791;SDS011;5953;52.372;9.918;2023-12-07T08:34:46;24.40;;;15.77;;
11791;SDS011;5953;52.372;9.918;2023-12-07T08:37:14;25.97;;;17.13;;
11791;SDS011;5953;52.372;9.918;2023-12-07T08:39:41;24.87;;;17.83;;
11791;SDS011;5953;52.372;9.918;2023-12-07T08:42:09;24.43;;;17.73;;
11791;SDS011;5953;52.372;9.918;2023-12-07T08:44:37;27.73;;;18.93;;
11791;SDS011;5953;52.372;9.918;2023-12-07T08:47:06;26.00;;;18.03;;
11791;SDS011;5953;52.372;9.918;2023-12-07T08:49:34;27.17;;;17.27;;
11791;SDS011;5953;52.372;9.918;2023-12-07T08:52:02;23.77;;;16.20;;
11791;SDS011;5953;52.372;9.918;2023-12-07T08:54:50;27.63;;;16.73;;
11791;SDS011;5953;52.372;9.918;2023-12-07T08:57:18;25.87;;;16.30;;
11791;SDS011;5953;52.372;9.918;2023-12-07T08:59:46;21.43;;;16.00;;
11791;SDS011;5953;52.372;9.918;2023-12-07T09:02:15;23.37;;;15.50;;
11791;SDS011;5953;52.372;9.918;2023-12-07T09:05:03;23.83;;;16.17;;
11791;SDS011;5953;52.372;9.918;2023-12-07T09:07:31;24.53;;;16.60;;
11791;SDS011;5953;52.372;9.918;2023-12-07T09:09:59;24.07;;;16.00;;
11791;SDS011;5953;52.372;9.918;2023-12-07T09:12:27;20.97;;;15.90;;
11791;SDS011;5953;52.372;9.918;2023-12-07T09:15:04;23.27;;;16.70;;
11791;SDS011;5953;52.372;9.918;2023-12-07T09:17:35;23.93;;;16.83;;
11791;SDS011;5953;52.372;9.918;2023-12-07T09:20:04;22.60;;;17.30;;
11791;SDS011;5953;52.372;9.918;2023-12-07T09:22:33;22.53;;;16.60;;
11791;SDS011;5953;52.372;9.918;2023-12-07T09:25:03;24.77;;;17.27;;
11791;SDS011;5953;52.372;9.918;2023-12-07T09:27:32;24.73;;;16.63;;
11791;SDS011;5953;52.372;9.918;2023-12-07T09:30:01;28.47;;;17.97;;
11791;SDS011;5953;52.372;9.918;2023-12-07T09:32:28;22.10;;;16.10;;
11791;SDS011;5953;52.372;9.918;2023-12-07T09:35:04;23.90;;;17.13;;
11791;SDS011;5953;52.372;9.918;2023-12-07T09:37:33;25.17;;;17.67;;
11791;SDS011;5953;52.372;9.918;2023-12-07T09:40:02;24.90;;;18.03;;
11791;SDS011;5953;52.372;9.918;2023-12-07T09:42:32;26.63;;;17.17;;
11791;SDS011;5953;52.372;9.918;2023-12-07T09:45:02;26.33;;;17.97;;
11791;SDS011;5953;52.372;9.918;2023-12-07T09:47:31;23.53;;;16.80;;
11791;SDS011;5953;52.372;9.918;2023-12-07T09:50:05;24.40;;;16.83;;
11791;SDS011;5953;52.372;9.918;2023-12-07T09:52:34;24.90;;;16.53;;
11791;SDS011;5953;52.372;9.918;2023-12-07T09:55:03;23.43;;;16.70;;
11791;SDS011;5953;52.372;9.918;2023-12-07T09:57:31;25.43;;;16.37;;
11791;SDS011;5953;52.372;9.918;2023-12-07T10:00:00;26.33;;;17.37;;
11791;SDS011;5953;52.372;9.918;2023-12-07T10:02:28;26.83;;;16.93;;
11791;SDS011;5953;52.372;9.918;2023-12-07T10:05:04;26.47;;;16.33;;
11791;SDS011;5953;52.372;9.918;2023-12-07T10:07:33;26.47;;;17.87;;
11791;SDS011;5953;52.372;9.918;2023-12-07T10:10:03;24.37;;;15.93;;
11791;SDS011;5953;52.372;9.918;2023-12-07T10:12:32;22.23;;;16.00;;
11791;SDS011;5953;52.372;9.918;2023-12-07T10:15:01;26.27;;;16.80;;
11791;SDS011;5953;52.372;9.918;2023-12-07T10:17:46;22.90;;;16.47;;
11791;SDS011;5953;52.372;9.918;2023-12-07T10:20:17;22.97;;;16.03;;
11791;SDS011;5953;52.372;9.918;2023-12-07T10:22:45;25.90;;;16.57;;
11791;SDS011;5953;52.372;9.918;2023-12-07T10:25:14;23.80;;;15.63;;
11791;SDS011;5953;52.372;9.918;2023-12-07T10:27:42;20.80;;;15.57;;
11791;SDS011;5953;52.372;9.918;2023-12-07T10:30:10;23.97;;;16.37;;
11791;SDS011;5953;52.372;9.918;2023-12-07T10:32:39;23.27;;;15.83;;
11791;SDS011;5953;52.372;9.918;2023-12-07T10:35:07;23.23;;;16.07;;
11791;SDS011;5953;52.372;9.918;2023-12-07T10:37:37;22.87;;;15.73;;
11791;SDS011;5953;52.372;9.918;2023-12-07T10:40:06;23.60;;;16.33;;
11791;SDS011;5953;52.372;9.918;2023-12-07T10:42:34;23.20;;;15.80;;
11791;SDS011;5953;52.372;9.918;2023-12-07T10:45:04;24.43;;;16.93;;
11791;SDS011;5953;52.372;9.918;2023-12-07T10:47:36;22.03;;;15.97;;
11791;SDS011;5953;52.372;9.918;2023-12-07T10:50:06;23.50;;;16.33;;
11791;SDS011;5953;52.372;9.918;2023-12-07T10:52:43;24.80;;;15.93;;
11791;SDS011;5953;52.372;9.918;2023-12-07T10:55:13;25.57;;;15.43;;
11791;SDS011;5953;52.372;9.918;2023-12-07T10:57:44;23.60;;;15.03;;
11791;SDS011;5953;52.372;9.918;2023-12-07T11:00:14;24.67;;;15.33;;
11791;SDS011;5953;52.372;9.918;2023-12-07T11:02:44;21.10;;;15.57;;
11791;SDS011;5953;52.372;9.918;2023-12-07T11:05:13;22.23;;;15.13;;
11791;SDS011;5953;52.372;9.918;2023-12-07T11:07:45;22.43;;;16.73;;
11791;SDS011;5953;52.372;9.918;2023-12-07T11:10:20;21.10;;;15.37;;
11791;SDS011;5953;52.372;9.918;2023-12-07T11:12:54;21.30;;;14.63;;
11791;SDS011;5953;52.372;9.918;2023-12-07T11:15:26;24.80;;;16.57;;
11791;SDS011;5953;52.372;9.918;2023-12-07T11:17:56;24.40;;;15.90;;
11791;SDS011;5953;52.372;9.918;2023-12-07T11:20:31;23.20;;;15.70;;
11791;SDS011;5953;52.372;9.918;2023-12-07T11:23:08;23.03;;;15.07;;
11791;SDS011;5953;52.372;9.918;2023-12-07T11:25:36;24.07;;;14.17;;
11791;SDS011;5953;52.372;9.918;2023-12-07T11:28:05;21.77;;;14.70;;
11791;SDS011;5953;52.372;9.918;2023-12-07T11:30:35;25.13;;;15.47;;
11791;SDS011;5953;52.372;9.918;2023-12-07T11:33:04;22.40;;;16.13;;
11791;SDS011;5953;52.372;9.918;2023-12-07T11:35:33;22.90;;;15.73;;
11791;SDS011;5953;52.372;9.918;2023-12-07T11:38:02;22.37;;;15.83;;
11791;SDS011;5953;52.372;9.918;2023-12-07T11:40:35;22.97;;;14.73;;
11791;SDS011;5953;52.372;9.918;2023-12-07T11:43:03;23.30;;;16.10;;
11791;SDS011;5953;52.372;9.918;2023-12-07T11:45:35;20.23;;;14.87;;
11791;SDS011;5953;52.372;9.918;2023-12-07T11:48:08;23.83;;;15.87;;
11791;SDS011;5953;52.372;9.918;2023-12-07T11:50:58;24.63;;;15.67;;
11791;SDS011;5953;52.372;9.918;2023-12-07T11:53:28;22.63;;;15.07;;
11791;SDS011;5953;52.372;9.918;2023-12-07T11:55:58;25.63;;;15.57;;
11791;SDS011;5953;52.372;9.918;2023-12-07T11:58:28;22.67;;;14.80;;
11791;SDS011;5953;52.372;9.918;2023-12-07T12:00:59;22.60;;;15.17;;
11791;SDS011;5953;52.372;9.918;2023-12-07T12:03:28;25.30;;;16.07;;
11791;SDS011;5953;52.372;9.918;2023-12-07T12:05:58;23.33;;;15.67;;
11791;SDS011;5953;52.372;9.918;2023-12-07T12:08:26;28.07;;;16.63;;
11791;SDS011;5953;52.372;9.918;2023-12-07T12:10:54;23.93;;;15.00;;
11791;SDS011;5953;52.372;9.918;2023-12-07T12:13:27;21.87;;;16.23;;
11791;SDS011;5953;52.372;9.918;2023-12-07T12:15:56;21.70;;;15.10;;
11791;SDS011;5953;52.372;9.918;2023-12-07T12:18:29;22.77;;;15.80;;
11791;SDS011;5953;52.372;9.918;2023-12-07T12:20:57;20.27;;;14.80;;
11791;SDS011;5953;52.372;9.918;2023-12-07T12:23:27;20.80;;;15.40;;
11791;SDS011;5953;52.372;9.918;2023-12-07T12:25:56;22.27;;;14.90;;
11791;SDS011;5953;52.372;9.918;2023-12-07T12:28:24;21.97;;;16.00;;
11791;SDS011;5953;52.372;9.918;2023-12-07T12:30:54;23.47;;;15.10;;
11791;SDS011;5953;52.372;9.918;2023-12-07T12:33:22;24.97;;;16.53;;
11791;SDS011;5953;52.372;9.918;2023-12-07T12:36:00;23.60;;;15.30;;
11791;SDS011;5953;52.372;9.918;2023-12-07T12:38:29;21.73;;;15.63;;
11791;SDS011;5953;52.372;9.918;2023-12-07T12:41:08;20.93;;;15.13;;
11791;SDS011;5953;52.372;9.918;2023-12-07T12:43:37;20.37;;;13.23;;
11791;SDS011;5953;52.372;9.918;2023-12-07T12:46:06;21.67;;;14.57;;
11791;SDS011;5953;52.372;9.918;2023-12-07T12:48:34;18.93;;;14.13;;
11791;SDS011;5953;52.372;9.918;2023-12-07T12:51:08;23.03;;;14.27;;
11791;SDS011;5953;52.372;9.918;2023-12-07T12:53:41;25.90;;;15.03;;
11791;SDS011;5953;52.372;9.918;2023-12-07T12:56:11;20.23;;;14.40;;
11791;SDS011;5953;52.372;9.918;2023-12-07T12:58:40;20.90;;;14.60;;
11791;SDS011;5953;52.372;9.918;2023-12-07T13:01:09;21.60;;;13.70;;
11791;SDS011;5953;52.372;9.918;2023-12-07T13:03:37;23.93;;;15.90;;
11791;SDS011;5953;52.372;9.918;2023-12-07T13:06:05;23.20;;;15.37;;
11791;SDS011;5953;52.372;9.918;2023-12-07T13:08:33;22.10;;;14.57;;
11791;SDS011;5953;52.372;9.918;2023-12-07T13:11:01;21.50;;;14.73;;
11791;SDS011;5953;52.372;9.918;2023-12-07T13:13:28;22.87;;;15.63;;
11791;SDS011;5953;52.372;9.918;2023-12-07T13:15:58;20.53;;;15.60;;
11791;SDS011;5953;52.372;9.918;2023-12-07T13:18:26;22.87;;;15.60;;
11791;SDS011;5953;52.372;9.918;2023-12-07T13:20:54;25.40;;;15.40;;
11791;SDS011;5953;52.372;9.918;2023-12-07T13:23:22;21.90;;;15.27;;
11791;SDS011;5953;52.372;9.918;2023-12-07T13:25:50;22.80;;;15.37;;
11791;SDS011;5953;52.372;9.918;2023-12-07T13:28:18;20.93;;;14.50;;
11791;SDS011;5953;52.372;9.918;2023-12-07T13:30:46;23.50;;;15.80;;
11791;SDS011;5953;52.372;9.918;2023-12-07T13:33:15;21.27;;;15.27;;
11791;SDS011;5953;52.372;9.918;2023-12-07T13:35:53;22.57;;;15.43;;
11791;SDS011;5953;52.372;9.918;2023-12-07T13:38:22;19.00;;;14.20;;
11791;SDS011;5953;52.372;9.918;2023-12-07T13:40:50;21.27;;;14.63;;
11791;SDS011;5953;52.372;9.918;2023-12-07T13:43:18;20.70;;;14.93;;
11791;SDS011;5953;52.372;9.918;2023-12-07T13:45:46;22.87;;;15.97;;
11791;SDS011;5953;52.372;9.918;2023-12-07T13:48:15;21.43;;;15.87;;
11791;SDS011;5953;52.372;9.918;2023-12-07T13:50:43;22.73;;;15.13;;
11791;SDS011;5953;52.372;9.918;2023-12-07T13:53:11;22.00;;;15.30;;
11791;SDS011;5953;52.372;9.918;2023-12-07T13:55:41;28.07;;;16.27;;
11791;SDS011;5953;52.372;9.918;2023-12-07T13:58:09;23.33;;;15.17;;
11791;SDS011;5953;52.372;9.918;2023-12-07T14:00:38;23.77;;;14.83;;
11791;SDS011;5953;52.372;9.918;2023-12-07T14:03:06;24.13;;;17.80;;
11791;SDS011;5953;52.372;9.918;2023-12-07T14:05:36;27.30;;;17.33;;
11791;SDS011;5953;52.372;9.918;2023-12-07T14:08:04;26.30;;;17.73;;
11791;SDS011;5953;52.372;9.918;2023-12-07T14:10:31;24.40;;;16.40;;
11791;SDS011;5953;52.372;9.918;2023-12-07T14:13:00;26.47;;;16.13;;
11791;SDS011;5953;52.372;9.918;2023-12-07T14:15:32;24.97;;;15.40;;
11791;SDS011;5953;52.372;9.918;2023-12-07T14:18:16;21.77;;;14.97;;
11791;SDS011;5953;52.372;9.918;2023-12-07T14:20:47;25.03;;;15.87;;
11791;SDS011;5953;52.372;9.918;2023-12-07T14:23:33;26.37;;;16.23;;
11791;SDS011;5953;52.372;9.918;2023-12-07T14:26:04;25.80;;;16.60;;
11791;SDS011;5953;52.372;9.918;2023-12-07T14:28:35;21.47;;;15.77;;
11791;SDS011;5953;52.372;9.918;2023-12-07T14:31:03;25.03;;;17.37;;
11791;SDS011;5953;52.372;9.918;2023-12-07T14:33:41;26.77;;;16.73;;
11791;SDS011;5953;52.372;9.918;2023-12-07T14:36:13;25.47;;;17.33;;
11791;SDS011;5953;52.372;9.918;2023-12-07T14:38:47;28.17;;;16.77;;
11791;SDS011;5953;52.372;9.918;2023-12-07T14:41:17;27.20;;;17.37;;
11791;SDS011;5953;52.372;9.918;2023-12-07T14:43:48;25.70;;;17.60;;
11791;SDS011;5953;52.372;9.918;2023-12-07T14:46:16;26.03;;;16.87;;